sensor_id;sensor_type;location;lat;lon;timestamp;temperature;humidity
15959;DHT22;8078;47.822;9.402;2024-02-21T00:01:43;3.50;1.00
15959;DHT22;8078;47.822;9.402;2024-02-21T00:04:08;3.60;1.00
15959;DHT22;8078;47.822;9.402;2024-02-21T00:06:34;3.60;1.00
15959;DHT22;8078;47.822;9.402;2024-02-21T00:08:59;3.60;1.00
15959;DHT22;8078;47.822;9.402;2024-02-21T00:11:25;3.60;1.00
15959;DHT22;8078;47.822;9.402;2024-02-21T00:13:50;3.60;1.00
15959;DHT22;8078;47.822;9.402;2024-02-21T00:16:16;3.60;1.00
15959;DHT22;8078;47.822;9.402;2024-02-21T00:18:43;3.50;1.00
15959;DHT22;8078;47.822;9.402;2024-02-21T00:21:08;3.40;1.00
15959;DHT22;8078;47.822;9.402;2024-02-21T00:23:34;3.40;1.00
15959;DHT22;8078;47.822;9.402;2024-02-21T00:25:59;3.60;1.00
15959;DHT22;8078;47.822;9.402;2024-02-21T00:28:25;3.60;1.00
15959;DHT22;8078;47.822;9.402;2024-02-21T00:30:50;3.60;1.00
15959;DHT22;8078;47.822;9.402;2024-02-21T00:33:18;3.50;1.00
15959;DHT22;8078;47.822;9.402;2024-02-21T00:35:44;3.40;1.00
15959;DHT22;8078;47.822;9.402;2024-02-21T00:38:09;3.40;1.00
15959;DHT22;8078;47.822;9.402;2024-02-21T00:40:35;3.40;1.00
15959;DHT22;8078;47.822;9.402;2024-02-21T00:43:01;3.40;1.00
15959;DHT22;8078;47.822;9.402;2024-02-21T00:45:26;3.50;1.00
15959;DHT22;8078;47.822;9.402;2024-02-21T00:47:52;3.60;1.00
15959;DHT22;8078;47.822;9.402;2024-02-21T00:50:17;3.60;1.00
15959;DHT22;8078;47.822;9.402;2024-02-21T00:52:43;3.50;1.00
15959;DHT22;8078;47.822;9.402;2024-02-21T00:55:09;3.50;1.00
15959;DHT22;8078;47.822;9.402;2024-02-21T00:57:35;3.50;1.00
15959;DHT22;8078;47.822;9.402;2024-02-21T01:00:02;3.50;1.00
15959;DHT22;8078;47.822;9.402;2024-02-21T01:02:28;3.40;1.00
15959;DHT22;8078;47.822;9.402;2024-02-21T01:04:53;3.40;1.00
15959;DHT22;8078;47.822;9.402;2024-02-21T01:07:19;3.40;1.00
15959;DHT22;8078;47.822;9.402;2024-02-21T01:09:45;3.50;1.00
15959;DHT22;8078;47.822;9.402;2024-02-21T01:12:10;3.50;1.00
15959;DHT22;8078;47.822;9.402;2024-02-21T01:14:36;3.40;1.00
15959;DHT22;8078;47.822;9.402;2024-02-21T01:17:01;3.50;1.00
15959;DHT22;8078;47.822;9.402;2024-02-21T01:19:27;3.40;1.00
15959;DHT22;8078;47.822;9.402;2024-02-21T01:21:52;3.40;1.00
15959;DHT22;8078;47.822;9.402;2024-02-21T01:24:18;3.50;1.00
15959;DHT22;8078;47.822;9.402;2024-02-21T01:26:43;3.50;1.00
15959;DHT22;8078;47.822;9.402;2024-02-21T01:29:09;3.60;1.00
15959;DHT22;8078;47.822;9.402;2024-02-21T01:31:35;3.50;1.00
15959;DHT22;8078;47.822;9.402;2024-02-21T01:34:00;3.40;1.00
15959;DHT22;8078;47.822;9.402;2024-02-21T01:36:26;3.40;1.00
15959;DHT22;8078;47.822;9.402;2024-02-21T01:38:51;3.40;1.00
15959;DHT22;8078;47.822;9.402;2024-02-21T01:41:17;3.50;1.00
15959;DHT22;8078;47.822;9.402;2024-02-21T01:43:42;3.60;1.00
15959;DHT22;8078;47.822;9.402;2024-02-21T01:46:08;3.70;1.00
15959;DHT22;8078;47.822;9.402;2024-02-21T01:48:34;3.70;1.00
15959;DHT22;8078;47.822;9.402;2024-02-21T01:51:00;3.70;1.00
15959;DHT22;8078;47.822;9.402;2024-02-21T01:53:30;3.70;1.00
15959;DHT22;8078;47.822;9.402;2024-02-21T01:55:58;3.70;1.00
15959;DHT22;8078;47.822;9.402;2024-02-21T01:58:24;3.70;1.00
15959;DHT22;8078;47.822;9.402;2024-02-21T02:00:50;3.80;1.00
15959;DHT22;8078;47.822;9.402;2024-02-21T02:03:16;3.70;1.00
15959;DHT22;8078;47.822;9.402;2024-02-21T02:05:48;3.70;1.00
15959;DHT22;8078;47.822;9.402;2024-02-21T02:08:18;3.60;1.00
15959;DHT22;8078;47.822;9.402;2024-02-21T02:10:44;3.70;1.00
15959;DHT22;8078;47.822;9.402;2024-02-21T02:13:10;3.70;1.00
15959;DHT22;8078;47.822;9.402;2024-02-21T02:15:43;3.70;1.00
15959;DHT22;8078;47.822;9.402;2024-02-21T02:18:09;3.70;1.00
15959;DHT22;8078;47.822;9.402;2024-02-21T02:20:35;3.70;1.00
15959;DHT22;8078;47.822;9.402;2024-02-21T02:23:16;3.60;1.00
15959;DHT22;8078;47.822;9.402;2024-02-21T02:25:42;3.60;1.00
15959;DHT22;8078;47.822;9.402;2024-02-21T02:28:09;3.60;1.00
15959;DHT22;8078;47.822;9.402;2024-02-21T02:30:35;3.60;1.00
15959;DHT22;8078;47.822;9.402;2024-02-21T02:33:02;3.60;1.00
15959;DHT22;8078;47.822;9.402;2024-02-21T02:35:28;3.60;1.00
15959;DHT22;8078;47.822;9.402;2024-02-21T02:37:54;3.60;1.00
15959;DHT22;8078;47.822;9.402;2024-02-21T02:40:19;3.50;1.00
15959;DHT22;8078;47.822;9.402;2024-02-21T02:42:45;3.40;1.00
15959;DHT22;8078;47.822;9.402;2024-02-21T02:45:11;3.40;1.00
15959;DHT22;8078;47.822;9.402;2024-02-21T02:47:36;3.40;1.00
15959;DHT22;8078;47.822;9.402;2024-02-21T02:50:02;3.30;1.00
15959;DHT22;8078;47.822;9.402;2024-02-21T02:52:28;3.30;1.00
15959;DHT22;8078;47.822;9.402;2024-02-21T02:54:53;3.20;1.00
15959;DHT22;8078;47.822;9.402;2024-02-21T02:57:21;3.20;1.00
15959;DHT22;8078;47.822;9.402;2024-02-21T02:59:50;3.30;1.00
15959;DHT22;8078;47.822;9.402;2024-02-21T03:02:16;3.30;1.00
15959;DHT22;8078;47.822;9.402;2024-02-21T03:04:42;3.30;1.00
15959;DHT22;8078;47.822;9.402;2024-02-21T03:07:08;3.30;1.00
15959;DHT22;8078;47.822;9.402;2024-02-21T03:09:33;3.30;1.00
15959;DHT22;8078;47.822;9.402;2024-02-21T03:11:59;3.30;1.00
15959;DHT22;8078;47.822;9.402;2024-02-21T03:14:31;3.30;1.00
15959;DHT22;8078;47.822;9.402;2024-02-21T03:16:58;3.30;1.00
15959;DHT22;8078;47.822;9.402;2024-02-21T03:19:24;3.30;1.00
15959;DHT22;8078;47.822;9.402;2024-02-21T03:21:49;3.20;1.00
15959;DHT22;8078;47.822;9.402;2024-02-21T03:24:19;3.30;1.00
15959;DHT22;8078;47.822;9.402;2024-02-21T03:26:45;3.20;1.00
15959;DHT22;8078;47.822;9.402;2024-02-21T03:29:12;3.30;1.00
15959;DHT22;8078;47.822;9.402;2024-02-21T03:31:38;3.30;1.00
15959;DHT22;8078;47.822;9.402;2024-02-21T03:34:03;3.30;1.00
15959;DHT22;8078;47.822;9.402;2024-02-21T03:36:29;3.30;1.00
15959;DHT22;8078;47.822;9.402;2024-02-21T03:38:55;3.30;1.00
15959;DHT22;8078;47.822;9.402;2024-02-21T03:41:21;3.30;1.00
15959;DHT22;8078;47.822;9.402;2024-02-21T03:43:46;3.30;1.00
15959;DHT22;8078;47.822;9.402;2024-02-21T03:46:12;3.30;1.00
15959;DHT22;8078;47.822;9.402;2024-02-21T03:48:38;3.30;1.00
15959;DHT22;8078;47.822;9.402;2024-02-21T03:51:04;3.30;1.00
15959;DHT22;8078;47.822;9.402;2024-02-21T03:53:29;3.20;1.00
15959;DHT22;8078;47.822;9.402;2024-02-21T03:55:55;3.30;1.00
15959;DHT22;8078;47.822;9.402;2024-02-21T03:58:21;3.30;1.00
15959;DHT22;8078;47.822;9.402;2024-02-21T04:00:47;3.30;1.00
15959;DHT22;8078;47.822;9.402;2024-02-21T04:03:13;3.40;1.00
15959;DHT22;8078;47.822;9.402;2024-02-21T04:05:38;3.40;1.00
15959;DHT22;8078;47.822;9.402;2024-02-21T04:08:05;3.50;1.00
15959;DHT22;8078;47.822;9.402;2024-02-21T04:10:31;3.50;1.00
15959;DHT22;8078;47.822;9.402;2024-02-21T04:12:56;3.60;1.00
15959;DHT22;8078;47.822;9.402;2024-02-21T04:15:22;3.70;1.00
15959;DHT22;8078;47.822;9.402;2024-02-21T04:17:47;3.70;1.00
15959;DHT22;8078;47.822;9.402;2024-02-21T04:20:15;3.80;1.00
15959;DHT22;8078;47.822;9.402;2024-02-21T04:22:42;3.80;1.00
15959;DHT22;8078;47.822;9.402;2024-02-21T04:25:08;3.80;1.00
15959;DHT22;8078;47.822;9.402;2024-02-21T04:27:34;3.80;1.00
15959;DHT22;8078;47.822;9.402;2024-02-21T04:30:00;3.70;1.00
15959;DHT22;8078;47.822;9.402;2024-02-21T04:32:25;3.80;1.00
15959;DHT22;8078;47.822;9.402;2024-02-21T04:34:53;3.70;1.00
15959;DHT22;8078;47.822;9.402;2024-02-21T04:37:18;3.80;1.00
15959;DHT22;8078;47.822;9.402;2024-02-21T04:39:44;3.80;1.00
15959;DHT22;8078;47.822;9.402;2024-02-21T04:42:09;3.70;1.00
15959;DHT22;8078;47.822;9.402;2024-02-21T04:44:35;3.70;1.00
15959;DHT22;8078;47.822;9.402;2024-02-21T04:47:01;3.70;1.00
15959;DHT22;8078;47.822;9.402;2024-02-21T04:49:27;3.70;1.00
15959;DHT22;8078;47.822;9.402;2024-02-21T04:51:52;3.70;1.00
15959;DHT22;8078;47.822;9.402;2024-02-21T04:54:18;3.70;1.00
15959;DHT22;8078;47.822;9.402;2024-02-21T04:56:43;3.80;1.00
15959;DHT22;8078;47.822;9.402;2024-02-21T04:59:09;3.80;1.00
15959;DHT22;8078;47.822;9.402;2024-02-21T05:01:34;3.70;1.00
15959;DHT22;8078;47.822;9.402;2024-02-21T05:04:00;3.70;1.00
15959;DHT22;8078;47.822;9.402;2024-02-21T05:06:26;3.60;1.00
15959;DHT22;8078;47.822;9.402;2024-02-21T05:08:51;3.50;1.00
15959;DHT22;8078;47.822;9.402;2024-02-21T05:11:17;3.40;1.00
15959;DHT22;8078;47.822;9.402;2024-02-21T05:13:43;3.30;1.00
15959;DHT22;8078;47.822;9.402;2024-02-21T05:16:08;3.30;1.00
15959;DHT22;8078;47.822;9.402;2024-02-21T05:18:34;3.30;1.00
15959;DHT22;8078;47.822;9.402;2024-02-21T05:21:00;3.30;1.00
15959;DHT22;8078;47.822;9.402;2024-02-21T05:23:26;3.20;1.00
15959;DHT22;8078;47.822;9.402;2024-02-21T05:25:51;3.20;1.00
15959;DHT22;8078;47.822;9.402;2024-02-21T05:28:17;3.20;1.00
15959;DHT22;8078;47.822;9.402;2024-02-21T05:30:42;3.20;1.00
15959;DHT22;8078;47.822;9.402;2024-02-21T05:33:08;3.10;1.00
15959;DHT22;8078;47.822;9.402;2024-02-21T05:35:35;3.20;1.00
15959;DHT22;8078;47.822;9.402;2024-02-21T05:38:00;3.20;1.00
15959;DHT22;8078;47.822;9.402;2024-02-21T05:40:26;3.10;1.00
15959;DHT22;8078;47.822;9.402;2024-02-21T05:42:52;3.10;1.00
15959;DHT22;8078;47.822;9.402;2024-02-21T05:45:18;3.20;1.00
15959;DHT22;8078;47.822;9.402;2024-02-21T05:47:44;3.30;1.00
15959;DHT22;8078;47.822;9.402;2024-02-21T05:50:09;3.40;1.00
15959;DHT22;8078;47.822;9.402;2024-02-21T05:52:35;3.40;1.00
15959;DHT22;8078;47.822;9.402;2024-02-21T05:55:01;3.40;1.00
15959;DHT22;8078;47.822;9.402;2024-02-21T05:57:26;3.50;1.00
15959;DHT22;8078;47.822;9.402;2024-02-21T05:59:52;3.50;1.00
15959;DHT22;8078;47.822;9.402;2024-02-21T06:02:17;3.40;1.00
15959;DHT22;8078;47.822;9.402;2024-02-21T06:04:43;3.40;1.00
15959;DHT22;8078;47.822;9.402;2024-02-21T06:07:09;3.50;1.00
15959;DHT22;8078;47.822;9.402;2024-02-21T06:09:35;3.50;1.00
15959;DHT22;8078;47.822;9.402;2024-02-21T06:12:00;3.50;1.00
15959;DHT22;8078;47.822;9.402;2024-02-21T06:14:26;3.50;1.00
15959;DHT22;8078;47.822;9.402;2024-02-21T06:16:51;3.50;1.00
15959;DHT22;8078;47.822;9.402;2024-02-21T06:19:17;3.60;1.00
15959;DHT22;8078;47.822;9.402;2024-02-21T06:21:43;3.60;1.00
15959;DHT22;8078;47.822;9.402;2024-02-21T06:24:08;3.60;1.00
15959;DHT22;8078;47.822;9.402;2024-02-21T06:26:34;3.60;1.00
15959;DHT22;8078;47.822;9.402;2024-02-21T06:28:59;3.60;1.00
15959;DHT22;8078;47.822;9.402;2024-02-21T06:31:25;3.50;1.00
15959;DHT22;8078;47.822;9.402;2024-02-21T06:33:51;3.50;1.00
15959;DHT22;8078;47.822;9.402;2024-02-21T06:36:16;3.50;1.00
15959;DHT22;8078;47.822;9.402;2024-02-21T06:38:42;3.50;1.00
15959;DHT22;8078;47.822;9.402;2024-02-21T06:41:17;3.50;1.00
15959;DHT22;8078;47.822;9.402;2024-02-21T06:43:47;3.60;1.00
15959;DHT22;8078;47.822;9.402;2024-02-21T06:46:42;3.50;1.00
15959;DHT22;8078;47.822;9.402;2024-02-21T06:49:08;3.50;1.00
15959;DHT22;8078;47.822;9.402;2024-02-21T06:51:34;3.40;1.00
15959;DHT22;8078;47.822;9.402;2024-02-21T06:54:00;3.50;1.00
15959;DHT22;8078;47.822;9.402;2024-02-21T06:56:26;3.40;1.00
15959;DHT22;8078;47.822;9.402;2024-02-21T06:58:55;3.40;1.00
15959;DHT22;8078;47.822;9.402;2024-02-21T07:01:21;3.50;1.00
15959;DHT22;8078;47.822;9.402;2024-02-21T07:03:46;3.50;1.00
15959;DHT22;8078;47.822;9.402;2024-02-21T07:06:12;3.60;1.00
15959;DHT22;8078;47.822;9.402;2024-02-21T07:08:38;3.60;1.00
15959;DHT22;8078;47.822;9.402;2024-02-21T07:11:04;3.70;1.00
15959;DHT22;8078;47.822;9.402;2024-02-21T07:13:30;3.80;1.00
15959;DHT22;8078;47.822;9.402;2024-02-21T07:15:55;3.90;1.00
15959;DHT22;8078;47.822;9.402;2024-02-21T07:18:21;3.90;1.00
15959;DHT22;8078;47.822;9.402;2024-02-21T07:20:47;4.00;1.00
15959;DHT22;8078;47.822;9.402;2024-02-21T07:23:12;4.00;1.00
15959;DHT22;8078;47.822;9.402;2024-02-21T07:25:38;4.10;1.00
15959;DHT22;8078;47.822;9.402;2024-02-21T07:28:05;4.00;1.00
15959;DHT22;8078;47.822;9.402;2024-02-21T07:30:31;3.90;1.00
15959;DHT22;8078;47.822;9.402;2024-02-21T07:32:56;3.90;1.00
15959;DHT22;8078;47.822;9.402;2024-02-21T07:35:22;3.80;1.00
15959;DHT22;8078;47.822;9.402;2024-02-21T07:37:47;3.70;1.00
15959;DHT22;8078;47.822;9.402;2024-02-21T07:40:14;3.50;1.00
15959;DHT22;8078;47.822;9.402;2024-02-21T07:42:40;3.40;1.00
15959;DHT22;8078;47.822;9.402;2024-02-21T07:45:09;3.40;1.00
15959;DHT22;8078;47.822;9.402;2024-02-21T07:47:36;3.40;1.00
15959;DHT22;8078;47.822;9.402;2024-02-21T07:50:02;3.30;1.00
15959;DHT22;8078;47.822;9.402;2024-02-21T07:52:28;3.50;1.00
15959;DHT22;8078;47.822;9.402;2024-02-21T07:54:53;3.50;1.00
15959;DHT22;8078;47.822;9.402;2024-02-21T07:57:19;3.70;1.00
15959;DHT22;8078;47.822;9.402;2024-02-21T07:59:45;3.90;1.00
15959;DHT22;8078;47.822;9.402;2024-02-21T08:02:15;4.00;1.00
15959;DHT22;8078;47.822;9.402;2024-02-21T08:04:41;4.00;1.00
15959;DHT22;8078;47.822;9.402;2024-02-21T08:07:06;4.20;1.00
15959;DHT22;8078;47.822;9.402;2024-02-21T08:09:32;4.20;1.00
15959;DHT22;8078;47.822;9.402;2024-02-21T08:11:57;4.30;1.00
15959;DHT22;8078;47.822;9.402;2024-02-21T08:14:23;4.40;1.00
15959;DHT22;8078;47.822;9.402;2024-02-21T08:16:50;4.40;1.00
15959;DHT22;8078;47.822;9.402;2024-02-21T08:19:16;4.40;1.00
15959;DHT22;8078;47.822;9.402;2024-02-21T08:21:42;4.40;1.00
15959;DHT22;8078;47.822;9.402;2024-02-21T08:24:07;4.70;1.00
15959;DHT22;8078;47.822;9.402;2024-02-21T08:26:33;4.90;1.00
15959;DHT22;8078;47.822;9.402;2024-02-21T08:28:59;4.90;1.00
15959;DHT22;8078;47.822;9.402;2024-02-21T08:31:26;4.90;1.00
15959;DHT22;8078;47.822;9.402;2024-02-21T08:34:00;5.00;1.00
15959;DHT22;8078;47.822;9.402;2024-02-21T08:36:35;5.00;1.00
15959;DHT22;8078;47.822;9.402;2024-02-21T08:39:02;4.90;1.00
15959;DHT22;8078;47.822;9.402;2024-02-21T08:41:31;4.90;1.00
15959;DHT22;8078;47.822;9.402;2024-02-21T08:43:57;4.90;1.00
15959;DHT22;8078;47.822;9.402;2024-02-21T08:46:23;5.00;1.00
15959;DHT22;8078;47.822;9.402;2024-02-21T08:48:50;4.90;1.00
15959;DHT22;8078;47.822;9.402;2024-02-21T08:51:16;4.90;1.00
15959;DHT22;8078;47.822;9.402;2024-02-21T08:53:43;5.10;1.00
15959;DHT22;8078;47.822;9.402;2024-02-21T08:56:08;5.10;1.00
15959;DHT22;8078;47.822;9.402;2024-02-21T08:58:35;4.90;1.00
15959;DHT22;8078;47.822;9.402;2024-02-21T09:01:02;5.00;1.00
15959;DHT22;8078;47.822;9.402;2024-02-21T09:03:30;5.20;1.00
15959;DHT22;8078;47.822;9.402;2024-02-21T09:05:56;5.20;1.00
15959;DHT22;8078;47.822;9.402;2024-02-21T09:08:21;5.20;1.00
15959;DHT22;8078;47.822;9.402;2024-02-21T09:10:47;5.20;1.00
15959;DHT22;8078;47.822;9.402;2024-02-21T09:13:13;5.30;1.00
15959;DHT22;8078;47.822;9.402;2024-02-21T09:15:38;5.20;1.00
15959;DHT22;8078;47.822;9.402;2024-02-21T09:18:04;5.10;1.00
15959;DHT22;8078;47.822;9.402;2024-02-21T09:20:29;5.20;1.00
15959;DHT22;8078;47.822;9.402;2024-02-21T09:22:55;5.10;1.00
15959;DHT22;8078;47.822;9.402;2024-02-21T09:25:20;5.30;1.00
15959;DHT22;8078;47.822;9.402;2024-02-21T09:27:46;5.30;1.00
15959;DHT22;8078;47.822;9.402;2024-02-21T09:30:12;5.30;1.00
15959;DHT22;8078;47.822;9.402;2024-02-21T09:32:38;5.30;1.00
15959;DHT22;8078;47.822;9.402;2024-02-21T09:35:04;5.10;1.00
15959;DHT22;8078;47.822;9.402;2024-02-21T09:37:31;5.20;1.00
15959;DHT22;8078;47.822;9.402;2024-02-21T09:39:57;5.10;1.00
15959;DHT22;8078;47.822;9.402;2024-02-21T09:42:31;5.10;1.00
15959;DHT22;8078;47.822;9.402;2024-02-21T09:45:04;5.00;1.00
15959;DHT22;8078;47.822;9.402;2024-02-21T09:47:50;4.90;1.00
15959;DHT22;8078;47.822;9.402;2024-02-21T09:50:21;4.90;1.00
15959;DHT22;8078;47.822;9.402;2024-02-21T09:52:48;5.00;1.00
15959;DHT22;8078;47.822;9.402;2024-02-21T09:55:17;5.00;1.00
15959;DHT22;8078;47.822;9.402;2024-02-21T09:57:44;4.90;1.00
15959;DHT22;8078;47.822;9.402;2024-02-21T10:00:10;4.90;1.00
15959;DHT22;8078;47.822;9.402;2024-02-21T10:02:36;5.10;1.00
15959;DHT22;8078;47.822;9.402;2024-02-21T10:05:02;5.20;1.00
15959;DHT22;8078;47.822;9.402;2024-02-21T10:07:30;5.50;1.00
15959;DHT22;8078;47.822;9.402;2024-02-21T10:10:03;5.60;1.00
15959;DHT22;8078;47.822;9.402;2024-02-21T10:12:29;5.70;1.00
15959;DHT22;8078;47.822;9.402;2024-02-21T10:15:05;5.70;1.00
15959;DHT22;8078;47.822;9.402;2024-02-21T10:17:34;5.80;1.00
15959;DHT22;8078;47.822;9.402;2024-02-21T10:20:09;5.90;1.00
15959;DHT22;8078;47.822;9.402;2024-02-21T10:22:35;5.90;1.00
15959;DHT22;8078;47.822;9.402;2024-02-21T10:25:09;6.40;1.00
15959;DHT22;8078;47.822;9.402;2024-02-21T10:27:34;6.20;1.00
15959;DHT22;8078;47.822;9.402;2024-02-21T10:30:00;6.20;1.00
15959;DHT22;8078;47.822;9.402;2024-02-21T10:32:26;6.10;1.00
15959;DHT22;8078;47.822;9.402;2024-02-21T10:35:04;6.20;1.00
15959;DHT22;8078;47.822;9.402;2024-02-21T10:37:30;6.30;1.00
15959;DHT22;8078;47.822;9.402;2024-02-21T10:39:56;6.30;1.00
15959;DHT22;8078;47.822;9.402;2024-02-21T10:42:22;6.40;1.00
15959;DHT22;8078;47.822;9.402;2024-02-21T10:44:51;6.50;1.00
15959;DHT22;8078;47.822;9.402;2024-02-21T10:47:22;6.50;1.00
15959;DHT22;8078;47.822;9.402;2024-02-21T10:49:54;6.50;1.00
15959;DHT22;8078;47.822;9.402;2024-02-21T10:55:32;6.50;1.00
15959;DHT22;8078;47.822;9.402;2024-02-21T10:57:59;6.60;1.00
15959;DHT22;8078;47.822;9.402;2024-02-21T11:00:26;6.70;1.00
15959;DHT22;8078;47.822;9.402;2024-02-21T11:02:56;6.50;1.00
15959;DHT22;8078;47.822;9.402;2024-02-21T11:05:24;6.60;1.00
15959;DHT22;8078;47.822;9.402;2024-02-21T11:07:50;6.50;1.00
15959;DHT22;8078;47.822;9.402;2024-02-21T11:10:26;6.30;1.00
15959;DHT22;8078;47.822;9.402;2024-02-21T11:13:08;6.50;1.00
15959;DHT22;8078;47.822;9.402;2024-02-21T11:15:33;6.50;1.00
15959;DHT22;8078;47.822;9.402;2024-02-21T11:17:59;6.30;1.00
15959;DHT22;8078;47.822;9.402;2024-02-21T11:20:33;6.30;1.00
15959;DHT22;8078;47.822;9.402;2024-02-21T11:22:59;6.60;1.00
15959;DHT22;8078;47.822;9.402;2024-02-21T11:25:26;6.70;1.00
15959;DHT22;8078;47.822;9.402;2024-02-21T11:28:02;6.80;1.00
15959;DHT22;8078;47.822;9.402;2024-02-21T11:30:30;6.80;1.00
15959;DHT22;8078;47.822;9.402;2024-02-21T11:33:03;6.90;1.00
15959;DHT22;8078;47.822;9.402;2024-02-21T11:35:36;7.00;1.00
15959;DHT22;8078;47.822;9.402;2024-02-21T11:38:12;6.80;1.00
15959;DHT22;8078;47.822;9.402;2024-02-21T11:40:45;7.20;1.00
15959;DHT22;8078;47.822;9.402;2024-02-21T11:43:11;7.50;1.00
15959;DHT22;8078;47.822;9.402;2024-02-21T11:45:37;7.30;1.00
15959;DHT22;8078;47.822;9.402;2024-02-21T11:48:04;7.50;1.00
15959;DHT22;8078;47.822;9.402;2024-02-21T11:50:30;7.60;1.00
15959;DHT22;8078;47.822;9.402;2024-02-21T11:52:57;7.90;1.00
15959;DHT22;8078;47.822;9.402;2024-02-21T11:55:23;8.00;1.00
15959;DHT22;8078;47.822;9.402;2024-02-21T11:57:49;8.00;1.00
15959;DHT22;8078;47.822;9.402;2024-02-21T12:00:16;8.20;1.00
15959;DHT22;8078;47.822;9.402;2024-02-21T12:02:43;8.10;1.00
15959;DHT22;8078;47.822;9.402;2024-02-21T12:05:11;8.20;1.00
15959;DHT22;8078;47.822;9.402;2024-02-21T12:07:37;8.30;1.00
15959;DHT22;8078;47.822;9.402;2024-02-21T12:10:14;8.30;1.00
15959;DHT22;8078;47.822;9.402;2024-02-21T12:12:40;8.00;1.00
15959;DHT22;8078;47.822;9.402;2024-02-21T12:15:07;8.10;1.00
15959;DHT22;8078;47.822;9.402;2024-02-21T12:17:36;7.70;1.00
15959;DHT22;8078;47.822;9.402;2024-02-21T12:20:03;7.90;1.00
15959;DHT22;8078;47.822;9.402;2024-02-21T12:22:52;8.00;1.00
15959;DHT22;8078;47.822;9.402;2024-02-21T12:25:21;8.00;1.00
15959;DHT22;8078;47.822;9.402;2024-02-21T12:27:48;8.00;1.00
15959;DHT22;8078;47.822;9.402;2024-02-21T12:30:15;8.00;1.00
15959;DHT22;8078;47.822;9.402;2024-02-21T12:32:41;7.70;1.00
15959;DHT22;8078;47.822;9.402;2024-02-21T12:35:07;8.00;1.00
15959;DHT22;8078;47.822;9.402;2024-02-21T12:37:33;7.80;1.00
15959;DHT22;8078;47.822;9.402;2024-02-21T12:39:59;7.70;1.00
15959;DHT22;8078;47.822;9.402;2024-02-21T12:42:24;7.60;1.00
15959;DHT22;8078;47.822;9.402;2024-02-21T12:44:54;7.70;1.00
15959;DHT22;8078;47.822;9.402;2024-02-21T12:47:20;7.80;1.00
15959;DHT22;8078;47.822;9.402;2024-02-21T12:49:49;7.70;1.00
15959;DHT22;8078;47.822;9.402;2024-02-21T12:52:14;7.80;1.00
15959;DHT22;8078;47.822;9.402;2024-02-21T12:54:40;8.00;1.00
15959;DHT22;8078;47.822;9.402;2024-02-21T12:57:05;7.70;1.00
15959;DHT22;8078;47.822;9.402;2024-02-21T12:59:31;8.10;1.00
15959;DHT22;8078;47.822;9.402;2024-02-21T13:01:56;7.90;1.00
15959;DHT22;8078;47.822;9.402;2024-02-21T13:04:22;7.80;1.00
15959;DHT22;8078;47.822;9.402;2024-02-21T13:06:48;7.80;1.00
15959;DHT22;8078;47.822;9.402;2024-02-21T13:09:14;7.70;1.00
15959;DHT22;8078;47.822;9.402;2024-02-21T13:11:40;7.80;1.00
15959;DHT22;8078;47.822;9.402;2024-02-21T13:14:06;7.90;1.00
15959;DHT22;8078;47.822;9.402;2024-02-21T13:16:32;8.00;1.00
15959;DHT22;8078;47.822;9.402;2024-02-21T13:19:07;8.00;1.00
15959;DHT22;8078;47.822;9.402;2024-02-21T13:21:35;8.00;1.00
15959;DHT22;8078;47.822;9.402;2024-02-21T13:24:01;7.90;1.00
15959;DHT22;8078;47.822;9.402;2024-02-21T13:26:27;7.60;1.00
15959;DHT22;8078;47.822;9.402;2024-02-21T13:28:53;7.70;1.00
15959;DHT22;8078;47.822;9.402;2024-02-21T13:31:19;7.90;1.00
15959;DHT22;8078;47.822;9.402;2024-02-21T13:33:44;7.90;1.00
15959;DHT22;8078;47.822;9.402;2024-02-21T13:36:10;7.90;1.00
15959;DHT22;8078;47.822;9.402;2024-02-21T13:38:36;7.90;1.00
15959;DHT22;8078;47.822;9.402;2024-02-21T13:41:02;8.00;1.00
15959;DHT22;8078;47.822;9.402;2024-02-21T13:43:27;7.90;1.00
15959;DHT22;8078;47.822;9.402;2024-02-21T13:46:01;7.90;1.00
15959;DHT22;8078;47.822;9.402;2024-02-21T13:48:28;7.90;1.00
15959;DHT22;8078;47.822;9.402;2024-02-21T13:50:54;7.70;1.00
15959;DHT22;8078;47.822;9.402;2024-02-21T13:53:20;7.80;1.00
15959;DHT22;8078;47.822;9.402;2024-02-21T13:55:46;7.80;1.00
15959;DHT22;8078;47.822;9.402;2024-02-21T13:58:12;7.90;1.00
15959;DHT22;8078;47.822;9.402;2024-02-21T14:00:38;7.90;1.00
15959;DHT22;8078;47.822;9.402;2024-02-21T14:03:04;7.80;1.00
15959;DHT22;8078;47.822;9.402;2024-02-21T14:05:29;7.80;1.00
15959;DHT22;8078;47.822;9.402;2024-02-21T14:07:55;7.80;1.00
15959;DHT22;8078;47.822;9.402;2024-02-21T14:10:21;7.90;1.00
15959;DHT22;8078;47.822;9.402;2024-02-21T14:12:47;7.80;1.00
15959;DHT22;8078;47.822;9.402;2024-02-21T14:15:15;7.80;1.00
15959;DHT22;8078;47.822;9.402;2024-02-21T14:17:44;7.90;1.00
15959;DHT22;8078;47.822;9.402;2024-02-21T14:20:10;8.00;1.00
15959;DHT22;8078;47.822;9.402;2024-02-21T14:22:36;8.00;1.00
15959;DHT22;8078;47.822;9.402;2024-02-21T14:25:04;7.90;1.00
15959;DHT22;8078;47.822;9.402;2024-02-21T14:27:31;7.90;1.00
15959;DHT22;8078;47.822;9.402;2024-02-21T14:29:56;7.90;1.00
15959;DHT22;8078;47.822;9.402;2024-02-21T14:32:22;7.80;1.00
15959;DHT22;8078;47.822;9.402;2024-02-21T14:34:47;7.90;1.00
15959;DHT22;8078;47.822;9.402;2024-02-21T14:37:14;8.00;1.00
15959;DHT22;8078;47.822;9.402;2024-02-21T14:39:40;8.00;1.00
15959;DHT22;8078;47.822;9.402;2024-02-21T14:42:06;8.20;1.00
15959;DHT22;8078;47.822;9.402;2024-02-21T14:44:32;8.10;1.00
15959;DHT22;8078;47.822;9.402;2024-02-21T14:46:58;7.90;1.00
15959;DHT22;8078;47.822;9.402;2024-02-21T14:49:23;7.90;1.00
15959;DHT22;8078;47.822;9.402;2024-02-21T14:51:50;7.90;1.00
15959;DHT22;8078;47.822;9.402;2024-02-21T14:54:16;8.00;1.00
15959;DHT22;8078;47.822;9.402;2024-02-21T14:56:41;7.90;1.00
15959;DHT22;8078;47.822;9.402;2024-02-21T14:59:07;8.00;1.00
15959;DHT22;8078;47.822;9.402;2024-02-21T15:01:36;7.90;1.00
15959;DHT22;8078;47.822;9.402;2024-02-21T15:04:04;7.90;1.00
15959;DHT22;8078;47.822;9.402;2024-02-21T15:06:29;7.80;1.00
15959;DHT22;8078;47.822;9.402;2024-02-21T15:08:57;7.90;1.00
15959;DHT22;8078;47.822;9.402;2024-02-21T15:11:23;7.80;1.00
15959;DHT22;8078;47.822;9.402;2024-02-21T15:13:49;7.90;1.00
15959;DHT22;8078;47.822;9.402;2024-02-21T15:16:15;7.90;1.00
15959;DHT22;8078;47.822;9.402;2024-02-21T15:18:42;7.80;1.00
15959;DHT22;8078;47.822;9.402;2024-02-21T15:21:07;7.80;1.00
15959;DHT22;8078;47.822;9.402;2024-02-21T15:23:36;7.70;1.00
15959;DHT22;8078;47.822;9.402;2024-02-21T15:26:01;7.80;1.00
15959;DHT22;8078;47.822;9.402;2024-02-21T15:28:27;7.80;1.00
15959;DHT22;8078;47.822;9.402;2024-02-21T15:30:54;7.80;1.00
15959;DHT22;8078;47.822;9.402;2024-02-21T15:33:20;7.80;1.00
15959;DHT22;8078;47.822;9.402;2024-02-21T15:35:45;7.80;1.00
15959;DHT22;8078;47.822;9.402;2024-02-21T15:38:11;7.80;1.00
15959;DHT22;8078;47.822;9.402;2024-02-21T15:40:36;7.80;1.00
15959;DHT22;8078;47.822;9.402;2024-02-21T15:43:03;7.70;1.00
15959;DHT22;8078;47.822;9.402;2024-02-21T15:45:28;7.70;1.00
15959;DHT22;8078;47.822;9.402;2024-02-21T15:47:54;7.70;1.00
15959;DHT22;8078;47.822;9.402;2024-02-21T15:50:20;7.70;1.00
15959;DHT22;8078;47.822;9.402;2024-02-21T15:52:45;7.70;1.00
15959;DHT22;8078;47.822;9.402;2024-02-21T15:55:11;7.70;1.00
15959;DHT22;8078;47.822;9.402;2024-02-21T15:57:38;7.60;1.00
15959;DHT22;8078;47.822;9.402;2024-02-21T16:00:05;7.60;1.00
15959;DHT22;8078;47.822;9.402;2024-02-21T16:02:31;7.60;1.00
15959;DHT22;8078;47.822;9.402;2024-02-21T16:04:56;7.60;1.00
15959;DHT22;8078;47.822;9.402;2024-02-21T16:07:22;7.60;1.00
15959;DHT22;8078;47.822;9.402;2024-02-21T16:09:48;7.60;1.00
15959;DHT22;8078;47.822;9.402;2024-02-21T16:12:13;7.50;1.00
15959;DHT22;8078;47.822;9.402;2024-02-21T16:14:39;7.50;1.00
15959;DHT22;8078;47.822;9.402;2024-02-21T16:17:05;7.50;1.00